Time;durP1;ratioP1;P1;durP2;ratioP2;P2;SDS_P1;SDS_P2;PMS_P1;PMS_P2;Temp;Humidity;BMP_temperature;BMP_pressure;BME280_temperature;BME280_humidity;BME280_pressure;Samples;Min_cycle;Max_cycle;Signal;HPM_P1;HPM_P2
2022/03/16 00:02:27;;;;;;;16.65;9.98;;;;;;;1.43;88.39;100918.97;10454692;28;20047;-74
2022/03/16 00:07:28;;;;;;;22.00;11.82;;;;;;;0.64;88.91;100791.28;10454006;28;20060;-74
2022/03/16 00:12:29;;;;;;;19.52;11.32;;;;;;;1.42;88.45;100917.28;10454499;28;20037;-74
2022/03/16 00:17:29;;;;;;;17.75;10.30;;;;;;;1.31;88.70;100907.47;10454513;28;20041;-74
2022/03/16 00:22:30;;;;;;;19.20;10.32;;;;;;;1.40;88.92;100924.38;10453908;28;20124;-76
2022/03/16 00:27:32;;;;;;;18.00;10.93;;;;;;;1.21;89.04;100890.66;10454782;28;20051;-74
2022/03/16 00:32:33;;;;;;;27.10;13.50;;;;;;;0.56;88.73;100794.34;10454082;28;20043;-76
2022/03/16 00:37:33;;;;;;;19.00;11.60;;;;;;;1.16;88.71;100921.50;10453536;28;20408;-74
2022/03/16 00:42:34;;;;;;;20.40;10.93;;;;;;;0.58;89.14;100867.47;10453364;28;20037;-75
2022/03/16 00:47:35;;;;;;;25.13;12.68;;;;;;;0.58;89.11;100899.69;10453560;28;20580;-74
2022/03/16 00:52:36;;;;;;;22.42;12.77;;;;;;;0.51;89.25;100885.28;10453182;28;20069;-74
2022/03/16 00:57:37;;;;;;;19.58;11.43;;;;;;;0.69;89.09;100906.91;10453618;28;20509;-75
2022/03/16 01:02:38;;;;;;;18.27;12.13;;;;;;;-0.57;89.67;100720.91;10459574;28;20086;-75
2022/03/16 01:07:39;;;;;;;17.67;12.13;;;;;;;-0.36;90.19;100798.88;10461559;28;20090;-74
2022/03/16 01:12:40;;;;;;;22.63;11.80;;;;;;;0.38;90.13;100968.78;10461162;28;20045;-74
2022/03/16 01:17:41;;;;;;;16.58;8.68;;;;;;;-1.23;88.82;100778.44;10460803;28;20405;-74
2022/03/16 01:22:42;;;;;;;10.00;6.43;;;;;;;-1.35;88.51;100834.66;10460366;28;20516;-75
2022/03/16 01:27:43;;;;;;;11.57;6.53;;;;;;;-1.01;88.86;100958.91;10460696;28;20056;-74
2022/03/16 01:32:44;;;;;;;8.32;4.75;;;;;;;-1.63;87.80;100913.41;10460942;28;20059;-74
2022/03/16 01:37:45;;;;;;;6.57;3.85;;;;;;;-1.29;88.26;101010.75;10459532;28;20390;-75
2022/03/16 01:42:46;;;;;;;7.43;3.97;;;;;;;-1.33;88.11;101006.63;10459116;28;20033;-75
2022/03/16 01:47:47;;;;;;;7.05;4.05;;;;;;;-1.44;88.08;101010.59;10459709;28;20061;-75
2022/03/16 01:52:48;;;;;;;6.35;3.47;;;;;;;-1.91;87.41;100939.97;10459023;28;20049;-75
2022/03/16 01:57:49;;;;;;;4.90;2.70;;;;;;;-1.38;86.56;101067.66;10457691;28;20037;-75
2022/03/16 02:02:50;;;;;;;5.00;2.90;;;;;;;-1.48;86.61;101063.78;10459246;28;20041;-75
2022/03/16 02:07:51;;;;;;;5.10;2.80;;;;;;;-1.56;86.61;101041.59;10457862;28;20044;-76
2022/03/16 02:12:52;;;;;;;5.38;2.70;;;;;;;-1.59;86.78;101073.84;10458132;28;20037;-75
2022/03/16 02:17:57;;;;;;;4.82;2.88;;;;;;;-1.56;87.03;101089.34;10458740;28;20033;-75
2022/03/16 02:23:08;;;;;;;7.47;2.75;;;;;;;-1.55;86.68;101100.63;10458487;28;20052;-75
2022/03/16 02:28:09;;;;;;;4.85;2.50;;;;;;;-2.54;86.05;100941.13;10458265;28;20045;-75
2022/03/16 02:33:10;;;;;;;3.72;2.13;;;;;;;-1.66;86.28;101086.34;10457963;28;20041;-75
2022/03/16 02:38:11;;;;;;;5.90;2.10;;;;;;;-1.79;85.53;101074.81;10458183;28;20080;-75
2022/03/16 02:43:12;;;;;;;5.88;1.90;;;;;;;-2.12;85.80;101043.34;10474351;28;20041;-75
2022/03/16 02:48:13;;;;;;;8.35;2.63;;;;;;;-2.47;85.48;100959.06;10457925;28;20056;-75
2022/03/16 02:53:15;;;;;;;4.90;2.15;;;;;;;-1.79;85.30;101074.81;10484700;28;20404;-75
2022/03/16 02:58:17;;;;;;;5.57;2.35;;;;;;;-2.64;85.55;100939.84;10484396;28;20047;-75
2022/03/16 03:03:18;;;;;;;4.78;2.47;;;;;;;-2.17;86.17;101045.31;10487482;28;20051;-74
2022/03/16 03:08:19;;;;;;;5.32;2.38;;;;;;;-2.39;85.49;100996.00;10478325;28;21984;-75
2022/03/16 03:13:20;;;;;;;5.50;2.20;;;;;;;-1.62;85.77;101120.91;10476966;28;20040;-75
2022/03/16 03:18:20;;;;;;;4.43;2.28;;;;;;;-1.84;85.66;101108.88;10476834;28;20072;-77
2022/03/16 03:23:21;;;;;;;3.90;1.70;;;;;;;-3.36;85.17;100843.44;10473820;28;20044;-74
2022/03/16 03:28:22;;;;;;;3.40;1.70;;;;;;;-2.28;84.85;101050.16;10454503;28;20045;-75
2022/03/16 03:33:23;;;;;;;3.53;1.20;;;;;;;-2.04;85.45;101085.47;10455709;28;20061;-75
2022/03/16 03:38:24;;;;;;;5.82;1.40;;;;;;;-1.70;85.13;101136.06;10456130;28;20443;-75
2022/03/16 03:43:24;;;;;;;2.47;0.98;;;;;;;-2.83;84.72;100973.63;10455746;28;20033;-74
2022/03/16 03:48:25;;;;;;;2.30;0.90;;;;;;;-2.60;84.67;101027.25;10455149;28;20602;-74
2022/03/16 03:53:26;;;;;;;2.58;1.20;;;;;;;-2.81;85.20;100997.81;10455248;28;20111;-74
2022/03/16 03:58:27;;;;;;;3.15;1.05;;;;;;;-1.86;84.95;101151.50;10454898;28;20487;-75
2022/03/16 04:03:28;;;;;;;2.10;0.93;;;;;;;-1.79;84.36;101159.91;10463835;28;20527;-75
2022/03/16 04:08:28;;;;;;;2.60;0.98;;;;;;;-1.90;84.00;101163.00;10495423;28;20171;-77
2022/03/16 04:13:29;;;;;;;2.53;1.23;;;;;;;-2.24;84.58;101140.19;10495645;28;20036;-77
2022/03/16 04:18:30;;;;;;;3.00;1.45;;;;;;;-2.88;84.05;101019.78;10496990;28;20049;-76
2022/03/16 04:23:31;;;;;;;2.35;1.17;;;;;;;-1.99;83.61;101158.19;10487645;28;20044;-78
2022/03/16 04:28:32;;;;;;;5.93;1.83;;;;;;;-2.10;84.15;101169.91;10474807;28;20052;-74
2022/03/16 04:33:32;;;;;;;3.35;1.63;;;;;;;-2.04;84.17;101181.81;10493861;28;20446;-74
2022/03/16 04:38:33;;;;;;;6.80;1.88;;;;;;;-2.01;83.48;101173.03;10462325;28;20045;-77
2022/03/16 04:43:34;;;;;;;4.72;1.90;;;;;;;-2.81;84.00;101054.19;10462479;28;20047;-77
2022/03/16 04:48:35;;;;;;;4.13;1.90;;;;;;;-2.00;83.76;101185.16;10461797;28;20067;-73
2022/03/16 04:53:36;;;;;;;4.13;2.30;;;;;;;-1.75;83.86;101208.34;10460747;28;20084;-75
2022/03/16 04:58:38;;;;;;;6.13;2.58;;;;;;;-1.68;83.77;101241.84;10461125;28;20128;-75
2022/03/16 05:03:38;;;;;;;4.82;2.08;;;;;;;-2.88;82.90;101021.53;10461298;28;20041;-75
2022/03/16 05:08:39;;;;;;;4.68;2.40;;;;;;;-1.71;82.60;101225.53;10461998;28;20041;-75
2022/03/16 05:13:41;;;;;;;6.05;2.65;;;;;;;-1.66;83.48;101254.81;10461726;28;20489;-75
2022/03/16 05:18:45;;;;;;;5.78;2.88;;;;;;;-1.77;83.15;101255.28;10461085;28;20485;-75
2022/03/16 05:23:46;;;;;;;6.10;2.42;;;;;;;-1.88;82.89;101229.72;10460889;28;20094;-75
2022/03/16 05:28:47;;;;;;;4.97;2.80;;;;;;;-2.05;83.42;101200.13;10461412;28;20045;-75
2022/03/16 05:33:48;;;;;;;9.18;3.95;;;;;;;-1.79;82.61;101248.47;10460417;28;20127;-75
2022/03/16 05:38:49;;;;;;;7.00;2.88;;;;;;;-1.77;83.18;101246.63;10459549;28;20047;-75
2022/03/16 05:43:50;;;;;;;4.20;2.40;;;;;;;-1.66;82.34;101266.09;10459511;28;20047;-74
2022/03/16 05:48:51;;;;;;;5.45;2.78;;;;;;;-1.69;82.51;101265.38;10460065;28;20147;-76
2022/03/16 05:53:52;;;;;;;6.90;4.22;;;;;;;-1.98;82.44;101232.78;10459942;28;20135;-75
2022/03/16 05:58:52;;;;;;;8.52;5.13;;;;;;;-1.87;82.54;101252.25;10458982;28;20070;-73
2022/03/16 06:03:54;;;;;;;11.10;6.25;;;;;;;-2.14;82.70;101190.94;10459697;28;20076;-74
2022/03/16 06:08:55;;;;;;;14.68;7.50;;;;;;;-1.64;81.84;101269.47;10458490;28;20040;-74
2022/03/16 06:13:56;;;;;;;10.57;7.05;;;;;;;-1.76;81.35;101263.97;10458778;28;20068;-75
2022/03/16 06:18:57;;;;;;;9.77;6.93;;;;;;;-1.74;81.78;101268.19;10458758;28;20140;-75
2022/03/16 06:23:57;;;;;;;12.80;7.80;;;;;;;-1.59;80.70;101256.25;10458548;28;20041;-76
2022/03/16 06:28:58;;;;;;;12.70;6.90;;;;;;;-1.57;79.86;101210.13;10457792;28;20045;-74
2022/03/16 06:33:59;;;;;;;9.45;6.43;;;;;;;-1.01;79.91;101271.88;10458948;28;20041;-75
2022/03/16 06:39:00;;;;;;;8.43;4.72;;;;;;;-1.41;78.00;101163.34;10457295;28;20071;-74
2022/03/16 06:44:01;;;;;;;8.40;4.70;;;;;;;-1.07;76.66;101227.81;10457050;28;20077;-74
2022/03/16 06:49:02;;;;;;;7.95;5.05;;;;;;;-0.77;76.67;101219.47;10456540;28;20053;-75
2022/03/16 06:54:03;;;;;;;10.32;6.50;;;;;;;-1.41;75.36;101104.28;10457044;28;20075;-75
2022/03/16 06:59:03;;;;;;;9.90;5.53;;;;;;;-0.26;75.49;101267.44;10455906;28;20552;-75
2022/03/16 07:04:04;;;;;;;7.95;4.93;;;;;;;-0.34;74.32;101217.34;10456403;28;20041;-75
2022/03/16 07:09:05;;;;;;;11.93;7.15;;;;;;;0.09;74.21;101294.41;10455905;28;20047;-75
2022/03/16 07:19:26;;;;;;;13.38;6.93;;;;;;;0.41;72.26;101282.28;10456385;28;20087;-75
2022/03/16 07:24:27;;;;;;;8.57;5.78;;;;;;;0.38;72.93;101297.28;10456863;28;20409;-75
2022/03/16 07:29:27;;;;;;;8.77;5.45;;;;;;;-0.34;72.13;101181.63;10455804;28;20056;-76
2022/03/16 07:34:28;;;;;;;9.73;6.18;;;;;;;-0.02;71.64;101245.28;10455798;28;20037;-76
2022/03/16 07:39:29;;;;;;;11.50;6.65;;;;;;;0.19;71.57;101292.16;10455354;28;20155;-76
2022/03/16 07:44:30;;;;;;;10.30;6.90;;;;;;;0.20;70.58;101273.78;10455706;28;20044;-76
2022/03/16 07:49:31;;;;;;;12.90;6.93;;;;;;;0.28;69.80;101294.28;10455483;28;20096;-75
2022/03/16 07:54:31;;;;;;;11.13;7.13;;;;;;;0.12;70.48;101262.91;10455014;28;20443;-75
2022/03/16 07:59:32;;;;;;;11.50;6.22;;;;;;;-0.14;70.76;101287.69;10455017;28;20083;-75
2022/03/16 08:04:33;;;;;;;9.30;5.93;;;;;;;-0.01;70.04;101301.00;10454355;28;20033;-75
2022/03/16 08:09:34;;;;;;;8.25;5.65;;;;;;;-0.55;69.80;101261.84;10453628;28;20040;-75
2022/03/16 08:14:34;;;;;;;10.40;5.20;;;;;;;-0.23;68.48;101296.00;10454527;28;20037;-75
2022/03/16 08:19:35;;;;;;;9.80;5.22;;;;;;;-0.17;68.68;101323.56;10453777;28;20125;-75
2022/03/16 08:24:36;;;;;;;9.40;5.10;;;;;;;-0.25;68.30;101306.50;10455030;28;20131;-76
2022/03/16 08:29:38;;;;;;;8.65;5.15;;;;;;;-0.67;68.35;101285.09;10454232;28;20052;-75
2022/03/16 08:34:38;;;;;;;13.25;6.80;;;;;;;-0.48;69.29;101314.59;10454196;28;20033;-75
2022/03/16 08:39:40;;;;;;;8.60;6.05;;;;;;;-0.83;68.79;101295.41;10453942;28;20135;-75
2022/03/16 08:44:42;;;;;;;9.20;6.03;;;;;;;-0.79;68.42;101312.59;10453519;28;20040;-76
2022/03/16 08:49:45;;;;;;;11.73;6.28;;;;;;;-0.79;67.78;101329.09;10454432;28;20408;-75
2022/03/16 08:54:45;;;;;;;10.40;6.55;;;;;;;-0.41;68.25;101330.84;10453706;28;20037;-75
2022/03/16 08:59:46;;;;;;;11.43;6.75;;;;;;;-0.29;67.64;101314.56;10453111;28;20054;-75
2022/03/16 09:04:47;;;;;;;12.73;7.07;;;;;;;-0.96;66.16;101201.22;10452304;28;20045;-77
2022/03/16 09:09:48;;;;;;;9.68;6.45;;;;;;;-1.09;66.95;101156.63;10454304;28;20041;-76
2022/03/16 09:14:49;;;;;;;8.57;5.13;;;;;;;0.03;65.95;101312.13;10453368;28;20131;-76
2022/03/16 09:19:50;;;;;;;13.90;6.43;;;;;;;-1.14;65.61;101192.50;10453598;28;20037;-76
2022/03/16 09:24:51;;;;;;;13.32;7.28;;;;;;;-0.40;65.76;101285.53;10461007;28;20061;-76
2022/03/16 09:29:54;;;;;;;13.63;7.53;;;;;;;-0.40;65.45;101295.97;10460080;28;20086;-77
2022/03/16 09:34:55;;;;;;;13.77;7.40;;;;;;;-0.12;65.11;101312.00;10461052;28;20045;-75
2022/03/16 09:39:56;;;;;;;12.15;7.00;;;;;;;0.00;65.22;101300.09;10460647;28;20516;-75
2022/03/16 09:45:03;;;;;;;12.15;7.90;;;;;;;-0.41;63.90;101295.13;10459449;28;20052;-75
2022/03/16 09:50:05;;;;;;;12.23;7.65;;;;;;;-0.87;64.55;101278.19;10460203;28;20140;-75
2022/03/16 09:55:06;;;;;;;13.90;8.35;;;;;;;-0.63;64.81;101274.41;10460006;28;20409;-77
2022/03/16 10:00:09;;;;;;;19.10;9.80;;;;;;;-0.34;62.79;101183.41;10459677;28;20382;-76
2022/03/16 10:05:10;;;;;;;17.30;9.35;;;;;;;0.01;62.69;101280.03;10459117;28;20040;-76
2022/03/16 10:15:31;;;;;;;16.10;9.45;;;;;;;-0.05;61.42;101282.03;10458338;28;20037;-75
2022/03/16 10:20:36;;;;;;;19.42;10.95;;;;;;;-0.71;61.51;101144.34;10457330;28;20045;-75
2022/03/16 10:25:58;;;;;;;15.38;9.43;;;;;;;0.14;59.85;101265.41;10458175;28;20087;-75
2022/03/16 10:31:06;;;;;;;14.60;9.25;;;;;;;-0.51;58.59;101155.53;10458059;28;20106;-75
2022/03/16 10:36:10;;;;;;;19.80;11.20;;;;;;;-0.22;60.10;101289.00;10457808;28;20041;-76
2022/03/16 10:41:13;;;;;;;16.63;10.75;;;;;;;0.05;61.13;101284.16;10457372;28;20044;-76
2022/03/16 10:51:34;;;;;;;18.70;10.10;;;;;;;0.43;59.27;101280.44;10457426;28;20401;-76
2022/03/16 10:56:39;;;;;;;18.52;11.63;;;;;;;0.25;58.96;101270.94;10456860;28;20045;-76
2022/03/16 11:01:40;;;;;;;18.25;11.65;;;;;;;0.26;58.65;101282.22;10457047;28;20044;-75
2022/03/16 11:06:42;;;;;;;27.13;11.10;;;;;;;0.02;58.80;101212.03;10457116;28;20120;-76
2022/03/16 11:17:03;;;;;;;19.20;11.07;;;;;;;-0.76;58.41;101128.06;10457238;28;20033;-75
2022/03/16 11:22:07;;;;;;;18.98;10.32;;;;;;;-0.49;58.64;101192.84;10455764;28;20103;-75
2022/03/16 11:27:17;;;;;;;18.73;9.77;;;;;;;-0.31;59.46;101274.63;10455599;28;20041;-75
2022/03/16 11:32:19;;;;;;;22.55;12.20;;;;;;;-1.04;60.46;101123.38;10455470;28;20033;-75
2022/03/16 11:37:36;;;;;;;20.45;12.55;;;;;;;-0.28;59.27;101279.69;10455754;28;20512;-75
2022/03/16 11:43:06;;;;;;;22.20;12.65;;;;;;;-0.14;59.95;101266.81;10453554;28;20045;-76
2022/03/16 11:48:33;;;;;;;26.17;12.75;;;;;;;-0.16;60.38;101260.81;10455412;28;20152;-75
2022/03/16 11:53:58;;;;;;;21.98;13.00;;;;;;;-0.19;59.62;101281.84;10454601;28;20044;-75
2022/03/16 12:31:49;;;;;;;20.48;12.88;;;;;;;-0.02;58.15;101271.41;10400575;28;20131;-75
2022/03/16 12:36:50;;;;;;;22.48;13.32;;;;;;;0.34;56.92;101295.75;10386098;28;20489;-77
2022/03/16 12:47:29;;;;;;;17.23;9.95;;;;;;;0.21;57.10;101300.78;10358860;28;20046;-76
2022/03/16 12:52:30;;;;;;;18.27;11.43;;;;;;;-0.03;57.34;101267.13;10367527;28;20038;-75
2022/03/16 12:57:31;;;;;;;21.27;11.98;;;;;;;-0.02;57.10;101265.34;10394162;28;20045;-77
2022/03/16 13:02:35;;;;;;;20.60;12.57;;;;;;;-0.61;57.63;101219.56;10412352;28;20513;-76
2022/03/16 13:07:38;;;;;;;22.45;12.45;;;;;;;-0.50;58.16;101232.94;10436805;28;20078;-76
2022/03/16 13:12:41;;;;;;;18.58;12.05;;;;;;;-0.49;57.05;101248.50;10435986;28;20050;-76
2022/03/16 13:17:42;;;;;;;24.13;11.70;;;;;;;-0.02;57.93;101305.38;10431106;28;20446;-76
2022/03/16 13:22:43;;;;;;;26.83;14.55;;;;;;;-0.53;57.96;101253.97;10438003;28;20042;-77
2022/03/16 13:27:51;;;;;;;23.85;13.40;;;;;;;-1.41;58.67;101145.13;10440479;27;20062;-76
2022/03/16 13:32:53;;;;;;;19.83;12.05;;;;;;;-1.47;58.66;101155.81;10383081;28;20049;-76
2022/03/16 13:38:04;;;;;;;24.58;14.48;;;;;;;-0.56;59.38;101312.38;10417454;28;20095;-76
2022/03/16 13:43:07;;;;;;;24.13;13.07;;;;;;;-0.51;59.37;101314.75;10416168;28;20078;-76
2022/03/16 13:48:15;;;;;;;20.60;11.02;;;;;;;-0.47;58.76;101311.09;10418919;28;20092;-77
2022/03/16 13:53:16;;;;;;;17.67;11.35;;;;;;;-0.61;58.22;101314.34;10417839;28;20046;-76
2022/03/16 13:58:25;;;;;;;24.80;13.20;;;;;;;-1.21;58.84;101266.72;10420093;28;20497;-75
2022/03/16 14:03:27;;;;;;;21.95;11.80;;;;;;;-0.84;59.25;101314.56;10417113;28;20072;-75
2022/03/16 14:08:28;;;;;;;18.38;10.98;;;;;;;-1.10;59.40;101261.84;10396785;28;20132;-75
2022/03/16 14:13:37;;;;;;;26.60;12.63;;;;;;;-0.84;58.91;101330.22;10392829;28;20072;-76
2022/03/16 14:18:38;;;;;;;20.90;11.55;;;;;;;-0.97;59.87;101338.59;10399006;28;20086;-75
2022/03/16 14:23:42;;;;;;;19.85;10.88;;;;;;;-1.15;60.45;101336.84;10416844;28;20042;-75
2022/03/16 14:28:44;;;;;;;21.50;11.35;;;;;;;-1.56;60.28;101325.63;10417097;28;20146;-76
2022/03/16 14:33:45;;;;;;;19.73;10.98;;;;;;;-1.73;60.94;101347.19;10417725;28;20043;-76
2022/03/16 14:38:46;;;;;;;17.38;9.02;;;;;;;-2.10;61.36;101326.09;10394251;28;20417;-76
2022/03/16 14:43:47;;;;;;;17.67;10.30;;;;;;;-2.84;61.91;101202.50;10409223;28;20124;-76
2022/03/16 14:48:48;;;;;;;18.90;10.05;;;;;;;-2.00;61.98;101378.69;10428508;28;20449;-75
2022/03/16 14:53:49;;;;;;;28.33;13.23;;;;;;;-2.13;62.23;101354.88;10403087;28;20619;-76
2022/03/16 14:58:50;;;;;;;18.15;10.32;;;;;;;-2.38;62.14;101346.38;10412156;28;20051;-75
2022/03/16 15:03:51;;;;;;;27.80;13.65;;;;;;;-2.43;62.88;101367.34;10427191;28;20428;-75
2022/03/16 15:08:54;;;;;;;19.92;10.32;;;;;;;-3.08;63.21;101280.56;10414785;28;20514;-75
2022/03/16 15:13:55;;;;;;;21.92;9.40;;;;;;;-2.86;63.49;101353.38;10393900;28;20062;-74
2022/03/16 15:18:56;;;;;;;15.98;9.43;;;;;;;-2.85;63.93;101356.84;10423158;28;20050;-74
2022/03/16 15:23:57;;;;;;;18.77;9.82;;;;;;;-2.98;64.05;101351.25;10393716;28;20129;-75
2022/03/16 15:28:58;;;;;;;18.60;10.30;;;;;;;-3.15;64.63;101351.00;10410710;28;20070;-74
2022/03/16 15:33:59;;;;;;;18.30;10.07;;;;;;;-4.02;65.05;101230.28;10418275;28;20038;-74
2022/03/16 15:39:00;;;;;;;16.40;9.85;;;;;;;-3.20;65.45;101390.19;10419828;28;20149;-74
2022/03/16 15:44:01;;;;;;;17.08;9.23;;;;;;;-3.16;65.55;101411.69;10376579;28;20046;-73
2022/03/16 15:49:03;;;;;;;19.75;10.40;;;;;;;-3.64;66.20;101350.16;10219819;28;20059;-75
2022/03/16 15:54:04;;;;;;;19.85;9.45;;;;;;;-3.55;66.44;101391.41;10218930;29;20058;-76
2022/03/16 15:59:04;;;;;;;16.63;9.55;;;;;;;-3.44;66.65;101407.44;10222934;28;20058;-74
2022/03/16 16:04:05;;;;;;;17.40;10.38;;;;;;;-4.37;66.71;101266.94;10243172;29;20038;-74
2022/03/16 16:09:07;;;;;;;35.70;11.95;;;;;;;-3.44;66.82;101433.41;10245925;28;20051;-74
2022/03/16 16:14:09;;;;;;;17.67;10.05;;;;;;;-4.26;67.64;101315.84;10245688;28;20142;-76
2022/03/16 16:19:11;;;;;;;18.58;9.38;;;;;;;-3.56;67.72;101454.59;10235377;28;20047;-73
2022/03/16 16:24:14;;;;;;;19.30;10.13;;;;;;;-5.09;67.62;101191.41;10244732;29;20101;-72
2022/03/16 16:30:17;;;;;;;19.40;10.85;;;;;;;-5.61;67.66;101119.69;10245027;28;20418;-75
2022/03/16 16:34:36;;;;;;;22.45;9.48;;;;;;;-3.67;68.07;101448.03;10224940;28;20059;-78
2022/03/16 16:39:41;;;;;;;18.42;10.82;;;;;;;-3.91;67.96;101417.69;10221093;29;20048;-78
2022/03/16 16:44:42;;;;;;;43.42;21.02;;;;;;;-3.76;68.61;101469.09;10220632;29;20114;-73
2022/03/16 16:49:45;;;;;;;20.70;11.65;;;;;;;-4.02;68.65;101414.56;10217653;28;20430;-76
2022/03/16 16:54:46;;;;;;;15.73;9.68;;;;;;;-4.02;68.97;101419.75;10243868;29;20402;-75
2022/03/16 16:59:47;;;;;;;18.02;9.73;;;;;;;-4.86;69.29;101302.16;10238784;29;20059;-75
2022/03/16 17:04:48;;;;;;;17.77;10.50;;;;;;;-4.17;69.64;101427.13;10246148;28;20040;-75
2022/03/16 17:09:50;;;;;;;23.45;9.82;;;;;;;-4.81;69.99;101327.94;10251283;28;20495;-73
2022/03/16 17:14:51;;;;;;;24.48;12.32;;;;;;;-5.33;70.00;101233.63;10236783;28;20503;-73
2022/03/16 17:19:53;;;;;;;22.80;11.20;;;;;;;-5.59;70.28;101206.75;10218603;28;20112;-74
2022/03/16 17:24:55;;;;;;;23.47;11.60;;;;;;;-4.34;70.41;101434.56;10210889;29;20044;-73
2022/03/16 17:29:58;;;;;;;18.60;10.30;;;;;;;-4.83;70.86;101355.66;10210497;29;20101;-75
2022/03/16 17:35:00;;;;;;;18.52;11.23;;;;;;;-5.59;70.85;101258.53;10235896;29;20472;-75
2022/03/16 17:40:01;;;;;;;19.23;10.55;;;;;;;-4.63;70.69;101432.84;10246846;28;20517;-73
2022/03/16 17:50:24;;;;;;;22.92;11.10;;;;;;;-4.70;71.26;101437.34;10227114;29;20048;-75
2022/03/16 18:00:44;;;;;;;29.52;13.18;;;;;;;-4.71;71.23;101456.38;10226356;29;20040;-74
2022/03/16 18:05:47;;;;;;;20.83;9.50;;;;;;;-6.39;70.25;101202.06;10223964;29;20070;-74
2022/03/16 18:16:09;;;;;;;19.73;9.90;;;;;;;-5.32;71.14;101468.41;10229560;28;20045;-73
2022/03/16 18:21:11;;;;;;;19.25;10.10;;;;;;;-5.72;71.52;101402.09;10221758;29;20039;-74
2022/03/16 18:26:16;;;;;;;16.48;10.52;;;;;;;-5.45;72.23;101452.31;10223561;29;20055;-74
2022/03/16 18:31:18;;;;;;;23.38;11.15;;;;;;;-5.42;71.91;101452.25;10223201;28;20476;-74
2022/03/16 18:36:23;;;;;;;22.95;10.75;;;;;;;-5.79;72.15;101408.31;10225810;28;20043;-74
2022/03/16 18:41:24;;;;;;;31.88;11.80;;;;;;;-6.35;72.45;101305.34;10228910;29;20821;-74
2022/03/16 18:46:25;;;;;;;23.23;11.63;;;;;;;-5.60;72.73;101432.84;10228615;29;20039;-72
2022/03/16 18:51:46;;;;;;;18.58;10.07;;;;;;;-6.33;72.35;101320.84;10224726;29;20052;-73
2022/03/16 18:56:47;;;;;;;19.42;9.88;;;;;;;-5.88;72.32;101418.91;10225545;28;20404;-74
2022/03/16 19:01:52;;;;;;;18.75;9.45;;;;;;;-6.16;73.02;101388.53;10225182;28;20558;-74
2022/03/16 19:06:55;;;;;;;32.25;12.05;;;;;;;-7.66;73.38;101120.69;10226300;28;20408;-73
2022/03/16 19:17:17;;;;;;;25.90;12.43;;;;;;;-5.72;74.29;101417.63;10248524;29;20043;-73
2022/03/16 19:22:19;;;;;;;28.27;10.98;;;;;;;-5.87;73.32;101421.44;10227266;28;20133;-73
2022/03/16 19:27:21;;;;;;;28.42;10.43;;;;;;;-6.23;73.10;101392.16;10209694;29;20077;-73
2022/03/16 19:32:23;;;;;;;22.55;9.73;;;;;;;-6.11;74.05;101411.69;10229238;28;20515;-74
2022/03/16 19:37:24;;;;;;;23.92;10.88;;;;;;;-6.18;73.95;101411.00;10247595;28;20047;-74
2022/03/16 19:42:25;;;;;;;19.38;10.18;;;;;;;-6.28;74.08;101388.81;10246792;28;20035;-74
2022/03/16 19:47:26;;;;;;;21.98;10.40;;;;;;;-6.40;74.39;101377.03;10246666;28;20050;-73
2022/03/16 19:52:31;;;;;;;18.75;9.77;;;;;;;-6.35;74.67;101376.91;10246828;28;20391;-74
2022/03/16 19:57:33;;;;;;;20.13;10.25;;;;;;;-6.43;74.75;101380.53;10245272;29;20413;-74
2022/03/16 20:02:34;;;;;;;17.73;9.88;;;;;;;-7.43;74.33;101226.84;10247406;28;20502;-73
2022/03/16 20:07:36;;;;;;;19.73;9.68;;;;;;;-7.48;74.49;101240.72;10246057;28;20051;-73
2022/03/16 20:12:37;;;;;;;18.30;10.23;;;;;;;-6.84;74.53;101385.75;10236357;28;20104;-74
2022/03/16 20:17:40;;;;;;;23.17;9.88;;;;;;;-7.63;74.48;101244.47;10240198;28;20082;-74
2022/03/16 20:22:43;;;;;;;20.47;10.20;;;;;;;-7.01;74.76;101348.19;10211333;29;20051;-74
2022/03/16 20:27:44;;;;;;;20.98;10.32;;;;;;;-6.88;74.86;101377.19;10216026;29;20138;-74
2022/03/16 20:32:45;;;;;;;18.10;9.68;;;;;;;-6.81;75.33;101372.78;10243977;29;20562;-74
2022/03/16 20:37:45;;;;;;;17.92;9.63;;;;;;;-6.91;75.92;101339.38;10244915;28;20058;-73
2022/03/16 20:42:46;;;;;;;22.27;10.73;;;;;;;-6.89;75.36;101358.25;10251223;28;20042;-73
2022/03/16 20:47:47;;;;;;;16.77;9.93;;;;;;;-7.66;74.33;101267.75;10252444;28;20047;-74
2022/03/16 20:52:48;;;;;;;17.83;9.48;;;;;;;-7.25;75.10;101353.84;10266545;28;20534;-74
2022/03/16 20:57:49;;;;;;;19.85;10.13;;;;;;;-7.12;75.27;101357.88;10266775;28;20499;-74
2022/03/16 21:02:51;;;;;;;20.00;9.75;;;;;;;-7.14;75.48;101362.25;10252479;28;20050;-73
2022/03/16 21:07:52;;;;;;;33.97;12.05;;;;;;;-7.38;75.80;101328.28;10251531;28;20510;-74
2022/03/16 21:12:54;;;;;;;19.48;10.57;;;;;;;-7.45;75.66;101288.00;10250930;28;20135;-74
2022/03/16 21:17:55;;;;;;;17.27;10.02;;;;;;;-7.19;74.68;101348.56;10251358;28;20097;-74
2022/03/16 21:22:56;;;;;;;24.02;10.65;;;;;;;-8.44;75.20;101163.53;10251281;28;20039;-73
2022/03/16 21:27:57;;;;;;;23.13;10.43;;;;;;;-7.30;75.34;101363.41;10251273;28;20071;-74
2022/03/16 21:32:57;;;;;;;24.77;10.98;;;;;;;-7.45;75.34;101347.34;10250408;28;20039;-73
2022/03/16 21:37:58;;;;;;;20.92;11.02;;;;;;;-7.48;76.26;101337.06;10250086;28;20108;-75
2022/03/16 21:42:59;;;;;;;28.58;12.50;;;;;;;-7.37;75.53;101334.28;10251260;28;20047;-74
2022/03/16 21:48:03;;;;;;;28.92;12.43;;;;;;;-8.87;74.85;101115.34;10249981;28;20047;-75
2022/03/16 21:53:06;;;;;;;18.75;10.55;;;;;;;-7.62;75.14;101349.41;10250350;28;20054;-74
2022/03/16 21:58:07;;;;;;;24.05;10.45;;;;;;;-7.65;74.97;101367.50;10250219;28;20043;-74
2022/03/16 22:03:09;;;;;;;22.17;11.40;;;;;;;-7.81;75.86;101336.84;10250134;28;20082;-74
2022/03/16 22:08:11;;;;;;;22.15;9.80;;;;;;;-7.86;75.29;101314.56;10249253;28;20043;-74
2022/03/16 22:13:12;;;;;;;21.27;10.75;;;;;;;-7.71;75.36;101367.63;10249686;28;20426;-73
2022/03/16 22:18:14;;;;;;;17.45;10.07;;;;;;;-7.70;75.77;101352.09;10249940;28;20131;-74
2022/03/16 22:23:15;;;;;;;23.80;10.02;;;;;;;-7.70;76.04;101322.88;10248869;28;20572;-74
2022/03/16 22:28:17;;;;;;;19.00;10.27;;;;;;;-7.57;75.69;101342.41;10249819;28;20065;-74
2022/03/16 22:33:18;;;;;;;19.50;10.70;;;;;;;-7.77;75.68;101311.81;10248670;28;20514;-74
2022/03/16 22:38:19;;;;;;;21.60;10.60;;;;;;;-7.53;75.74;101346.66;10263441;28;20047;-74
2022/03/16 22:43:20;;;;;;;32.33;10.70;;;;;;;-8.06;75.65;101258.19;10248261;28;20047;-74
2022/03/16 22:48:20;;;;;;;21.75;10.73;;;;;;;-7.57;75.45;101339.81;10247867;28;20088;-74
2022/03/16 22:53:21;;;;;;;22.13;10.45;;;;;;;-8.74;75.44;101163.19;10248676;28;20043;-74
2022/03/16 22:58:22;;;;;;;18.40;9.93;;;;;;;-7.78;75.75;101342.78;10248657;28;20506;-74
2022/03/16 23:03:23;;;;;;;20.63;10.80;;;;;;;-7.79;76.23;101357.44;10246610;28;20067;-74
2022/03/16 23:08:25;;;;;;;18.48;9.98;;;;;;;-7.85;75.74;101339.47;10248029;28;20101;-76
2022/03/16 23:13:26;;;;;;;22.77;10.75;;;;;;;-8.20;75.70;101283.34;10248024;28;20078;-74
2022/03/16 23:18:27;;;;;;;18.27;10.35;;;;;;;-7.79;76.38;101331.63;10248392;28;20513;-74
2022/03/16 23:23:30;;;;;;;19.85;10.00;;;;;;;-7.88;75.45;101318.91;10248010;28;20043;-74
2022/03/16 23:28:31;;;;;;;19.10;8.70;;;;;;;-7.81;75.87;101331.66;10247185;28;20074;-74
2022/03/16 23:33:35;;;;;;;18.73;9.43;;;;;;;-9.06;76.13;101132.81;10246767;28;20039;-74
2022/03/16 23:38:35;;;;;;;16.42;9.30;;;;;;;-9.18;75.17;101133.88;10247149;28;20105;-74
2022/03/16 23:43:38;;;;;;;17.05;8.40;;;;;;;-8.13;75.46;101332.22;10261942;28;20391;-74
2022/03/16 23:48:39;;;;;;;17.02;9.25;;;;;;;-8.38;76.06;101280.19;10246706;28;20138;-74
2022/03/16 23:53:40;;;;;;;17.90;9.13;;;;;;;-8.10;75.60;101342.47;10246819;28;20413;-74
2022/03/16 23:58:41;;;;;;;14.35;8.48;;;;;;;-9.50;75.67;101111.19;10246450;28;20126;-74
